Accueil
METAR-TAF:

METAR-TAF

Aéroports :

Aéroport international de Shanghai-Pudong

Shanghai-Pudong, Chine

latitude: 31-07N, longitude: 121-46E, altitude: 4 m

Observation

Le bulletin a été fait il y a 44 minutes, à 22:30 UTC
Vent 10 kt de est/sud-est
Température 18°C
Humidité 94%
Pression 1012 hPa
Visibilité 10 km ou plus
Nuages fragmentés à une hauteur de 2300 ft

METAR: ZSPD 192230Z 12005MPS 9999 BKN023 18/17 Q1012 NOSIG

Heure: 07:14 (23:14 UTC)

Prévision

Le bulletin a été fait il y a 7 heures et 46 minutes, à 15:28 UTC
Prévision valable du 19 à 18 UTC au 20 à 18 UTC
Vent 8 kt de est/sud-est
Visibilité: 3500 m
Nuages fragmentés à une hauteur de 1000 ft
brume
Temporairement
du 19 à 18 UTC au 19 à 24 UTC
Nuages fragmentés à une hauteur de 300 ft

TAF: ZSPD 191528Z 1918/2018 11004MPS 3500 BR BKN010 TX22/2006Z TN16/1921Z TEMPO 1918/1924 BKN003

Observations et prévisions météorologiques de plus de 4000 aéroports (messages METAR et TAF).

Les stations disponibles sont représentées par des disques jaunes et rouges sur la carte.

Passer la souris dessus pour voir le nom de la station.

Cliquer dessus pour voir les observations et prévisions météorologiques.

Pour changer de carte: cliquez sur les boutons verts avec une croix noire pour zoomer, sur le bouton vert avec un tiret pour effectuer un zoom arrière, ou sur les flèches vertes pour les cartes adjacentes.


METAR-TAF: